sensor_id;sensor_type;location;lat;lon;timestamp;P1;durP1;ratioP1;P2;durP2;ratioP2
14080;SDS011;7116;52.152;5.392;2023-03-05T00:01:56;12.73;;;3.70;;
14080;SDS011;7116;52.152;5.392;2023-03-05T00:04:21;11.73;;;3.43;;
14080;SDS011;7116;52.152;5.392;2023-03-05T00:06:47;10.25;;;3.45;;
14080;SDS011;7116;52.152;5.392;2023-03-05T00:09:12;7.63;;;3.77;;
14080;SDS011;7116;52.152;5.392;2023-03-05T00:11:38;8.57;;;3.08;;
14080;SDS011;7116;52.152;5.392;2023-03-05T00:14:04;9.20;;;3.43;;
14080;SDS011;7116;52.152;5.392;2023-03-05T00:16:30;9.13;;;3.67;;
14080;SDS011;7116;52.152;5.392;2023-03-05T00:18:56;8.37;;;3.40;;
14080;SDS011;7116;52.152;5.392;2023-03-05T00:21:22;8.50;;;3.00;;
14080;SDS011;7116;52.152;5.392;2023-03-05T00:23:48;8.93;;;2.87;;
14080;SDS011;7116;52.152;5.392;2023-03-05T00:26:14;5.85;;;3.00;;
14080;SDS011;7116;52.152;5.392;2023-03-05T00:28:40;7.60;;;3.57;;
14080;SDS011;7116;52.152;5.392;2023-03-05T00:31:05;5.57;;;3.35;;
14080;SDS011;7116;52.152;5.392;2023-03-05T00:33:30;8.63;;;3.63;;
14080;SDS011;7116;52.152;5.392;2023-03-05T00:35:55;8.97;;;3.93;;
14080;SDS011;7116;52.152;5.392;2023-03-05T00:38:21;9.90;;;3.22;;
14080;SDS011;7116;52.152;5.392;2023-03-05T00:40:48;8.00;;;4.03;;
14080;SDS011;7116;52.152;5.392;2023-03-05T00:43:14;12.27;;;3.50;;
14080;SDS011;7116;52.152;5.392;2023-03-05T00:45:39;11.90;;;3.60;;
14080;SDS011;7116;52.152;5.392;2023-03-05T00:48:04;8.20;;;3.13;;
14080;SDS011;7116;52.152;5.392;2023-03-05T00:50:29;11.57;;;3.33;;
14080;SDS011;7116;52.152;5.392;2023-03-05T00:52:55;9.27;;;3.73;;
14080;SDS011;7116;52.152;5.392;2023-03-05T00:55:20;10.13;;;4.00;;
14080;SDS011;7116;52.152;5.392;2023-03-05T00:57:45;10.90;;;4.00;;
14080;SDS011;7116;52.152;5.392;2023-03-05T01:00:11;8.40;;;4.00;;
14080;SDS011;7116;52.152;5.392;2023-03-05T01:02:37;8.70;;;3.78;;
14080;SDS011;7116;52.152;5.392;2023-03-05T01:05:02;9.60;;;3.37;;
14080;SDS011;7116;52.152;5.392;2023-03-05T01:07:27;8.77;;;3.77;;
14080;SDS011;7116;52.152;5.392;2023-03-05T01:09:52;12.50;;;3.87;;
14080;SDS011;7116;52.152;5.392;2023-03-05T01:12:18;7.87;;;3.80;;
14080;SDS011;7116;52.152;5.392;2023-03-05T01:14:43;8.07;;;3.47;;
14080;SDS011;7116;52.152;5.392;2023-03-05T01:17:08;11.33;;;4.53;;
14080;SDS011;7116;52.152;5.392;2023-03-05T01:19:33;10.87;;;3.83;;
14080;SDS011;7116;52.152;5.392;2023-03-05T01:21:59;10.63;;;4.03;;
14080;SDS011;7116;52.152;5.392;2023-03-05T01:24:24;8.98;;;3.35;;
14080;SDS011;7116;52.152;5.392;2023-03-05T01:26:49;6.80;;;3.33;;
14080;SDS011;7116;52.152;5.392;2023-03-05T01:29:14;11.65;;;3.83;;
14080;SDS011;7116;52.152;5.392;2023-03-05T01:31:39;9.35;;;3.42;;
14080;SDS011;7116;52.152;5.392;2023-03-05T01:34:05;9.20;;;4.22;;
14080;SDS011;7116;52.152;5.392;2023-03-05T01:36:30;8.00;;;3.30;;
14080;SDS011;7116;52.152;5.392;2023-03-05T01:38:56;12.53;;;4.10;;
14080;SDS011;7116;52.152;5.392;2023-03-05T01:41:21;11.73;;;4.03;;
14080;SDS011;7116;52.152;5.392;2023-03-05T01:43:46;11.10;;;3.73;;
14080;SDS011;7116;52.152;5.392;2023-03-05T01:48:41;14.37;;;4.47;;
14080;SDS011;7116;52.152;5.392;2023-03-05T01:51:08;10.43;;;3.70;;
14080;SDS011;7116;52.152;5.392;2023-03-05T01:53:33;8.40;;;3.77;;
14080;SDS011;7116;52.152;5.392;2023-03-05T01:55:58;8.10;;;3.95;;
14080;SDS011;7116;52.152;5.392;2023-03-05T01:58:23;10.70;;;3.80;;
14080;SDS011;7116;52.152;5.392;2023-03-05T02:00:49;7.28;;;3.38;;
14080;SDS011;7116;52.152;5.392;2023-03-05T02:03:16;9.73;;;4.03;;
14080;SDS011;7116;52.152;5.392;2023-03-05T02:05:41;14.43;;;4.10;;
14080;SDS011;7116;52.152;5.392;2023-03-05T02:08:11;8.98;;;3.65;;
14080;SDS011;7116;52.152;5.392;2023-03-05T02:10:37;9.67;;;3.77;;
14080;SDS011;7116;52.152;5.392;2023-03-05T02:13:07;9.40;;;4.00;;
14080;SDS011;7116;52.152;5.392;2023-03-05T02:15:33;12.85;;;4.05;;
14080;SDS011;7116;52.152;5.392;2023-03-05T02:17:58;9.30;;;3.80;;
14080;SDS011;7116;52.152;5.392;2023-03-05T02:20:26;11.25;;;4.38;;
14080;SDS011;7116;52.152;5.392;2023-03-05T02:22:52;12.82;;;4.43;;
14080;SDS011;7116;52.152;5.392;2023-03-05T02:25:21;10.50;;;3.93;;
14080;SDS011;7116;52.152;5.392;2023-03-05T02:27:55;10.40;;;4.13;;
14080;SDS011;7116;52.152;5.392;2023-03-05T02:30:22;7.15;;;3.95;;
14080;SDS011;7116;52.152;5.392;2023-03-05T02:32:47;8.93;;;4.40;;
14080;SDS011;7116;52.152;5.392;2023-03-05T02:35:12;12.27;;;4.43;;
14080;SDS011;7116;52.152;5.392;2023-03-05T02:37:38;7.10;;;3.40;;
14080;SDS011;7116;52.152;5.392;2023-03-05T02:40:03;6.63;;;3.97;;
14080;SDS011;7116;52.152;5.392;2023-03-05T02:42:28;9.80;;;4.07;;
14080;SDS011;7116;52.152;5.392;2023-03-05T02:44:57;10.05;;;4.40;;
14080;SDS011;7116;52.152;5.392;2023-03-05T02:47:22;10.73;;;3.90;;
14080;SDS011;7116;52.152;5.392;2023-03-05T02:49:47;8.40;;;3.50;;
14080;SDS011;7116;52.152;5.392;2023-03-05T02:52:13;8.27;;;4.03;;
14080;SDS011;7116;52.152;5.392;2023-03-05T02:54:38;8.37;;;3.17;;
14080;SDS011;7116;52.152;5.392;2023-03-05T02:57:03;10.30;;;3.53;;
14080;SDS011;7116;52.152;5.392;2023-03-05T02:59:28;9.00;;;3.90;;
14080;SDS011;7116;52.152;5.392;2023-03-05T03:01:53;6.27;;;3.67;;
14080;SDS011;7116;52.152;5.392;2023-03-05T03:04:18;7.47;;;3.73;;
14080;SDS011;7116;52.152;5.392;2023-03-05T03:06:44;10.97;;;3.87;;
14080;SDS011;7116;52.152;5.392;2023-03-05T03:09:09;7.57;;;3.07;;
14080;SDS011;7116;52.152;5.392;2023-03-05T03:11:34;9.30;;;3.67;;
14080;SDS011;7116;52.152;5.392;2023-03-05T03:13:59;12.00;;;3.77;;
14080;SDS011;7116;52.152;5.392;2023-03-05T03:16:24;11.13;;;3.37;;
14080;SDS011;7116;52.152;5.392;2023-03-05T03:18:49;9.07;;;3.70;;
14080;SDS011;7116;52.152;5.392;2023-03-05T03:21:15;13.83;;;3.93;;
14080;SDS011;7116;52.152;5.392;2023-03-05T03:23:41;9.00;;;2.93;;
14080;SDS011;7116;52.152;5.392;2023-03-05T03:26:06;7.80;;;3.60;;
14080;SDS011;7116;52.152;5.392;2023-03-05T03:28:31;7.00;;;3.70;;
14080;SDS011;7116;52.152;5.392;2023-03-05T03:30:56;6.73;;;3.93;;
14080;SDS011;7116;52.152;5.392;2023-03-05T03:33:22;7.43;;;3.47;;
14080;SDS011;7116;52.152;5.392;2023-03-05T03:35:47;9.53;;;3.47;;
14080;SDS011;7116;52.152;5.392;2023-03-05T03:38:12;7.87;;;3.23;;
14080;SDS011;7116;52.152;5.392;2023-03-05T03:40:38;8.95;;;3.25;;
14080;SDS011;7116;52.152;5.392;2023-03-05T03:43:03;6.77;;;3.37;;
14080;SDS011;7116;52.152;5.392;2023-03-05T03:45:28;8.83;;;4.17;;
14080;SDS011;7116;52.152;5.392;2023-03-05T03:47:54;5.90;;;3.17;;
14080;SDS011;7116;52.152;5.392;2023-03-05T03:50:19;9.43;;;3.47;;
14080;SDS011;7116;52.152;5.392;2023-03-05T03:52:45;7.50;;;3.50;;
14080;SDS011;7116;52.152;5.392;2023-03-05T03:55:10;7.70;;;3.23;;
14080;SDS011;7116;52.152;5.392;2023-03-05T03:57:35;8.60;;;3.43;;
14080;SDS011;7116;52.152;5.392;2023-03-05T04:00:01;13.60;;;4.40;;
14080;SDS011;7116;52.152;5.392;2023-03-05T04:02:26;8.90;;;3.22;;
14080;SDS011;7116;52.152;5.392;2023-03-05T04:04:51;6.82;;;3.35;;
14080;SDS011;7116;52.152;5.392;2023-03-05T04:07:17;9.20;;;4.05;;
14080;SDS011;7116;52.152;5.392;2023-03-05T04:09:42;6.70;;;3.08;;
14080;SDS011;7116;52.152;5.392;2023-03-05T04:12:07;8.20;;;4.00;;
14080;SDS011;7116;52.152;5.392;2023-03-05T04:14:33;7.30;;;3.03;;
14080;SDS011;7116;52.152;5.392;2023-03-05T04:16:58;6.50;;;3.23;;
14080;SDS011;7116;52.152;5.392;2023-03-05T04:19:23;7.80;;;3.30;;
14080;SDS011;7116;52.152;5.392;2023-03-05T04:21:49;4.90;;;3.00;;
14080;SDS011;7116;52.152;5.392;2023-03-05T04:24:14;6.43;;;3.30;;
14080;SDS011;7116;52.152;5.392;2023-03-05T04:26:39;5.57;;;3.23;;
14080;SDS011;7116;52.152;5.392;2023-03-05T04:29:04;6.40;;;3.33;;
14080;SDS011;7116;52.152;5.392;2023-03-05T04:31:29;6.73;;;3.23;;
14080;SDS011;7116;52.152;5.392;2023-03-05T04:33:54;15.90;;;4.10;;
14080;SDS011;7116;52.152;5.392;2023-03-05T04:36:20;13.00;;;3.17;;
14080;SDS011;7116;52.152;5.392;2023-03-05T04:38:45;9.25;;;3.50;;
14080;SDS011;7116;52.152;5.392;2023-03-05T04:41:10;5.35;;;3.10;;
14080;SDS011;7116;52.152;5.392;2023-03-05T04:43:35;8.53;;;3.43;;
14080;SDS011;7116;52.152;5.392;2023-03-05T04:46:01;11.15;;;3.10;;
14080;SDS011;7116;52.152;5.392;2023-03-05T04:48:26;10.63;;;3.28;;
14080;SDS011;7116;52.152;5.392;2023-03-05T04:50:51;4.90;;;3.20;;
14080;SDS011;7116;52.152;5.392;2023-03-05T04:53:16;5.07;;;2.70;;
14080;SDS011;7116;52.152;5.392;2023-03-05T04:55:42;5.13;;;2.73;;
14080;SDS011;7116;52.152;5.392;2023-03-05T04:58:07;7.70;;;3.10;;
14080;SDS011;7116;52.152;5.392;2023-03-05T05:00:33;7.93;;;2.77;;
14080;SDS011;7116;52.152;5.392;2023-03-05T05:02:58;8.03;;;3.33;;
14080;SDS011;7116;52.152;5.392;2023-03-05T05:05:24;6.13;;;2.90;;
14080;SDS011;7116;52.152;5.392;2023-03-05T05:07:52;6.05;;;3.15;;
14080;SDS011;7116;52.152;5.392;2023-03-05T05:10:17;4.65;;;2.20;;
14080;SDS011;7116;52.152;5.392;2023-03-05T05:12:42;7.30;;;2.57;;
14080;SDS011;7116;52.152;5.392;2023-03-05T05:15:08;5.70;;;3.20;;
14080;SDS011;7116;52.152;5.392;2023-03-05T05:17:33;5.07;;;3.07;;
14080;SDS011;7116;52.152;5.392;2023-03-05T05:19:59;5.63;;;3.35;;
14080;SDS011;7116;52.152;5.392;2023-03-05T05:22:26;4.03;;;3.08;;
14080;SDS011;7116;52.152;5.392;2023-03-05T05:24:51;6.90;;;2.92;;
14080;SDS011;7116;52.152;5.392;2023-03-05T05:27:17;6.50;;;3.40;;
14080;SDS011;7116;52.152;5.392;2023-03-05T05:29:42;6.80;;;3.00;;
14080;SDS011;7116;52.152;5.392;2023-03-05T05:32:09;6.57;;;3.53;;
14080;SDS011;7116;52.152;5.392;2023-03-05T05:34:34;7.63;;;3.13;;
14080;SDS011;7116;52.152;5.392;2023-03-05T05:36:59;8.25;;;2.50;;
14080;SDS011;7116;52.152;5.392;2023-03-05T05:39:24;4.47;;;2.67;;
14080;SDS011;7116;52.152;5.392;2023-03-05T05:41:50;8.02;;;3.00;;
14080;SDS011;7116;52.152;5.392;2023-03-05T05:44:16;3.75;;;2.53;;
14080;SDS011;7116;52.152;5.392;2023-03-05T05:46:41;5.53;;;3.10;;
14080;SDS011;7116;52.152;5.392;2023-03-05T05:49:06;4.97;;;2.70;;
14080;SDS011;7116;52.152;5.392;2023-03-05T05:51:31;5.27;;;2.97;;
14080;SDS011;7116;52.152;5.392;2023-03-05T05:53:56;6.27;;;3.57;;
14080;SDS011;7116;52.152;5.392;2023-03-05T05:56:21;7.10;;;3.07;;
14080;SDS011;7116;52.152;5.392;2023-03-05T05:58:47;6.90;;;2.90;;
14080;SDS011;7116;52.152;5.392;2023-03-05T06:01:18;6.90;;;2.90;;
14080;SDS011;7116;52.152;5.392;2023-03-05T06:03:43;6.45;;;2.35;;
14080;SDS011;7116;52.152;5.392;2023-03-05T06:06:09;4.93;;;2.93;;
14080;SDS011;7116;52.152;5.392;2023-03-05T06:08:34;5.90;;;3.03;;
14080;SDS011;7116;52.152;5.392;2023-03-05T06:11:00;5.10;;;2.80;;
14080;SDS011;7116;52.152;5.392;2023-03-05T06:13:25;7.07;;;2.87;;
14080;SDS011;7116;52.152;5.392;2023-03-05T06:16:00;4.93;;;2.97;;
14080;SDS011;7116;52.152;5.392;2023-03-05T06:18:25;3.87;;;2.50;;
14080;SDS011;7116;52.152;5.392;2023-03-05T06:21:01;6.60;;;3.77;;
14080;SDS011;7116;52.152;5.392;2023-03-05T06:23:26;5.18;;;2.60;;
14080;SDS011;7116;52.152;5.392;2023-03-05T06:25:52;6.95;;;2.90;;
14080;SDS011;7116;52.152;5.392;2023-03-05T06:28:17;5.80;;;2.90;;
14080;SDS011;7116;52.152;5.392;2023-03-05T06:30:42;4.63;;;2.87;;
14080;SDS011;7116;52.152;5.392;2023-03-05T06:33:07;5.77;;;3.00;;
14080;SDS011;7116;52.152;5.392;2023-03-05T06:35:33;10.13;;;3.50;;
14080;SDS011;7116;52.152;5.392;2023-03-05T06:37:58;4.77;;;2.83;;
14080;SDS011;7116;52.152;5.392;2023-03-05T06:40:23;6.93;;;2.97;;
14080;SDS011;7116;52.152;5.392;2023-03-05T06:42:48;4.53;;;2.40;;
14080;SDS011;7116;52.152;5.392;2023-03-05T06:45:13;7.67;;;3.40;;
14080;SDS011;7116;52.152;5.392;2023-03-05T06:47:39;4.43;;;2.97;;
14080;SDS011;7116;52.152;5.392;2023-03-05T06:50:04;7.97;;;3.07;;
14080;SDS011;7116;52.152;5.392;2023-03-05T06:52:29;6.77;;;3.20;;
14080;SDS011;7116;52.152;5.392;2023-03-05T06:54:54;4.93;;;3.10;;
14080;SDS011;7116;52.152;5.392;2023-03-05T06:57:20;6.60;;;3.50;;
14080;SDS011;7116;52.152;5.392;2023-03-05T06:59:46;10.07;;;3.45;;
14080;SDS011;7116;52.152;5.392;2023-03-05T07:02:11;7.03;;;3.87;;
14080;SDS011;7116;52.152;5.392;2023-03-05T07:04:37;5.80;;;2.90;;
14080;SDS011;7116;52.152;5.392;2023-03-05T07:07:02;5.30;;;2.93;;
14080;SDS011;7116;52.152;5.392;2023-03-05T07:09:27;3.63;;;2.60;;
14080;SDS011;7116;52.152;5.392;2023-03-05T07:11:54;7.10;;;2.87;;
14080;SDS011;7116;52.152;5.392;2023-03-05T07:14:19;5.00;;;2.77;;
14080;SDS011;7116;52.152;5.392;2023-03-05T07:16:44;5.20;;;2.90;;
14080;SDS011;7116;52.152;5.392;2023-03-05T07:19:10;5.00;;;3.13;;
14080;SDS011;7116;52.152;5.392;2023-03-05T07:21:35;5.60;;;3.10;;
14080;SDS011;7116;52.152;5.392;2023-03-05T07:24:00;4.27;;;2.80;;
14080;SDS011;7116;52.152;5.392;2023-03-05T07:26:26;7.07;;;2.92;;
14080;SDS011;7116;52.152;5.392;2023-03-05T07:28:52;15.80;;;3.60;;
14080;SDS011;7116;52.152;5.392;2023-03-05T07:31:19;7.97;;;2.50;;
14080;SDS011;7116;52.152;5.392;2023-03-05T07:33:45;5.50;;;2.42;;
14080;SDS011;7116;52.152;5.392;2023-03-05T07:36:10;6.03;;;2.42;;
14080;SDS011;7116;52.152;5.392;2023-03-05T07:38:36;8.53;;;2.90;;
14080;SDS011;7116;52.152;5.392;2023-03-05T07:41:05;5.93;;;2.87;;
14080;SDS011;7116;52.152;5.392;2023-03-05T07:43:31;4.45;;;2.67;;
14080;SDS011;7116;52.152;5.392;2023-03-05T07:45:56;5.43;;;2.70;;
14080;SDS011;7116;52.152;5.392;2023-03-05T07:48:22;9.10;;;3.20;;
14080;SDS011;7116;52.152;5.392;2023-03-05T07:50:47;4.30;;;2.92;;
14080;SDS011;7116;52.152;5.392;2023-03-05T07:53:13;6.23;;;3.07;;
14080;SDS011;7116;52.152;5.392;2023-03-05T07:55:42;4.88;;;2.58;;
14080;SDS011;7116;52.152;5.392;2023-03-05T07:58:08;4.83;;;2.27;;
14080;SDS011;7116;52.152;5.392;2023-03-05T08:00:33;6.67;;;2.87;;
14080;SDS011;7116;52.152;5.392;2023-03-05T08:02:58;6.27;;;3.20;;
14080;SDS011;7116;52.152;5.392;2023-03-05T08:05:23;4.63;;;2.60;;
14080;SDS011;7116;52.152;5.392;2023-03-05T08:07:48;5.63;;;2.90;;
14080;SDS011;7116;52.152;5.392;2023-03-05T08:10:14;4.37;;;2.63;;
14080;SDS011;7116;52.152;5.392;2023-03-05T08:12:39;5.43;;;2.70;;
14080;SDS011;7116;52.152;5.392;2023-03-05T08:15:04;5.73;;;3.00;;
14080;SDS011;7116;52.152;5.392;2023-03-05T08:17:30;6.03;;;2.72;;
14080;SDS011;7116;52.152;5.392;2023-03-05T08:19:55;4.47;;;2.67;;
14080;SDS011;7116;52.152;5.392;2023-03-05T08:22:23;5.45;;;3.00;;
14080;SDS011;7116;52.152;5.392;2023-03-05T08:24:48;11.43;;;3.00;;
14080;SDS011;7116;52.152;5.392;2023-03-05T08:27:15;6.00;;;3.17;;
14080;SDS011;7116;52.152;5.392;2023-03-05T08:29:41;6.17;;;2.87;;
14080;SDS011;7116;52.152;5.392;2023-03-05T08:32:06;5.13;;;2.77;;
14080;SDS011;7116;52.152;5.392;2023-03-05T08:34:31;5.23;;;2.50;;
14080;SDS011;7116;52.152;5.392;2023-03-05T08:36:56;7.13;;;2.93;;
14080;SDS011;7116;52.152;5.392;2023-03-05T08:39:21;4.53;;;2.97;;
14080;SDS011;7116;52.152;5.392;2023-03-05T08:41:47;5.17;;;2.70;;
14080;SDS011;7116;52.152;5.392;2023-03-05T08:44:12;3.07;;;2.23;;
14080;SDS011;7116;52.152;5.392;2023-03-05T08:46:38;5.10;;;2.30;;
14080;SDS011;7116;52.152;5.392;2023-03-05T08:49:03;5.30;;;2.38;;
14080;SDS011;7116;52.152;5.392;2023-03-05T08:51:28;2.93;;;2.43;;
14080;SDS011;7116;52.152;5.392;2023-03-05T08:53:54;8.33;;;2.63;;
14080;SDS011;7116;52.152;5.392;2023-03-05T08:56:20;6.50;;;2.83;;
14080;SDS011;7116;52.152;5.392;2023-03-05T08:58:45;5.40;;;2.73;;
14080;SDS011;7116;52.152;5.392;2023-03-05T09:01:12;4.22;;;2.38;;
14080;SDS011;7116;52.152;5.392;2023-03-05T09:03:37;6.10;;;3.20;;
14080;SDS011;7116;52.152;5.392;2023-03-05T09:06:04;6.20;;;2.83;;
14080;SDS011;7116;52.152;5.392;2023-03-05T09:08:29;8.00;;;2.87;;
14080;SDS011;7116;52.152;5.392;2023-03-05T09:10:54;4.80;;;2.60;;
14080;SDS011;7116;52.152;5.392;2023-03-05T09:13:19;9.03;;;2.80;;
14080;SDS011;7116;52.152;5.392;2023-03-05T09:15:45;4.70;;;2.93;;
14080;SDS011;7116;52.152;5.392;2023-03-05T09:18:17;4.43;;;2.83;;
14080;SDS011;7116;52.152;5.392;2023-03-05T09:20:42;6.33;;;3.13;;
14080;SDS011;7116;52.152;5.392;2023-03-05T09:23:07;5.27;;;2.73;;
14080;SDS011;7116;52.152;5.392;2023-03-05T09:25:32;6.67;;;3.60;;
14080;SDS011;7116;52.152;5.392;2023-03-05T09:27:58;5.33;;;2.87;;
14080;SDS011;7116;52.152;5.392;2023-03-05T09:30:23;4.67;;;3.63;;
14080;SDS011;7116;52.152;5.392;2023-03-05T09:32:48;4.77;;;2.70;;
14080;SDS011;7116;52.152;5.392;2023-03-05T09:35:15;5.30;;;3.10;;
14080;SDS011;7116;52.152;5.392;2023-03-05T09:37:40;6.70;;;2.90;;
14080;SDS011;7116;52.152;5.392;2023-03-05T09:40:05;4.83;;;2.47;;
14080;SDS011;7116;52.152;5.392;2023-03-05T09:45:09;5.00;;;2.80;;
14080;SDS011;7116;52.152;5.392;2023-03-05T09:47:50;4.38;;;2.50;;
14080;SDS011;7116;52.152;5.392;2023-03-05T09:52:50;6.10;;;2.78;;
14080;SDS011;7116;52.152;5.392;2023-03-05T09:55:25;5.28;;;2.80;;
14080;SDS011;7116;52.152;5.392;2023-03-05T09:57:53;3.47;;;1.95;;
14080;SDS011;7116;52.152;5.392;2023-03-05T10:00:30;4.88;;;3.15;;
14080;SDS011;7116;52.152;5.392;2023-03-05T10:02:58;5.57;;;2.95;;
14080;SDS011;7116;52.152;5.392;2023-03-05T10:05:27;4.40;;;3.08;;
14080;SDS011;7116;52.152;5.392;2023-03-05T10:07:54;6.25;;;3.00;;
14080;SDS011;7116;52.152;5.392;2023-03-05T10:10:25;6.83;;;3.10;;
14080;SDS011;7116;52.152;5.392;2023-03-05T10:12:51;5.32;;;2.50;;
14080;SDS011;7116;52.152;5.392;2023-03-05T10:20:21;3.38;;;2.20;;
14080;SDS011;7116;52.152;5.392;2023-03-05T10:28:14;5.15;;;2.28;;
14080;SDS011;7116;52.152;5.392;2023-03-05T10:38:32;5.07;;;2.83;;
14080;SDS011;7116;52.152;5.392;2023-03-05T10:41:02;2.83;;;2.10;;
14080;SDS011;7116;52.152;5.392;2023-03-05T10:45:56;3.50;;;2.33;;
14080;SDS011;7116;52.152;5.392;2023-03-05T10:50:48;4.83;;;2.37;;
14080;SDS011;7116;52.152;5.392;2023-03-05T10:56:00;8.82;;;2.20;;
14080;SDS011;7116;52.152;5.392;2023-03-05T10:58:26;6.03;;;2.27;;
14080;SDS011;7116;52.152;5.392;2023-03-05T11:03:35;3.22;;;2.25;;
14080;SDS011;7116;52.152;5.392;2023-03-05T11:06:09;3.47;;;2.47;;
14080;SDS011;7116;52.152;5.392;2023-03-05T11:08:38;6.55;;;2.33;;
14080;SDS011;7116;52.152;5.392;2023-03-05T11:11:11;6.67;;;2.30;;
14080;SDS011;7116;52.152;5.392;2023-03-05T11:13:40;4.20;;;1.90;;
14080;SDS011;7116;52.152;5.392;2023-03-05T11:16:09;3.78;;;2.05;;
14080;SDS011;7116;52.152;5.392;2023-03-05T11:18:39;6.50;;;2.95;;
14080;SDS011;7116;52.152;5.392;2023-03-05T11:21:10;4.60;;;2.58;;
14080;SDS011;7116;52.152;5.392;2023-03-05T11:23:36;4.80;;;2.38;;
14080;SDS011;7116;52.152;5.392;2023-03-05T11:28:34;7.03;;;2.87;;
14080;SDS011;7116;52.152;5.392;2023-03-05T11:31:01;3.45;;;2.40;;
14080;SDS011;7116;52.152;5.392;2023-03-05T11:33:27;3.13;;;2.13;;
14080;SDS011;7116;52.152;5.392;2023-03-05T11:36:03;4.75;;;2.00;;
14080;SDS011;7116;52.152;5.392;2023-03-05T11:38:36;4.35;;;2.20;;
14080;SDS011;7116;52.152;5.392;2023-03-05T11:41:07;4.40;;;2.00;;
14080;SDS011;7116;52.152;5.392;2023-03-05T11:43:33;3.00;;;2.17;;
14080;SDS011;7116;52.152;5.392;2023-03-05T11:46:02;3.03;;;2.05;;
14080;SDS011;7116;52.152;5.392;2023-03-05T11:48:29;3.27;;;1.93;;
14080;SDS011;7116;52.152;5.392;2023-03-05T11:50:57;2.90;;;1.80;;
14080;SDS011;7116;52.152;5.392;2023-03-05T11:53:26;3.42;;;2.50;;
14080;SDS011;7116;52.152;5.392;2023-03-05T11:56:03;3.50;;;1.77;;
14080;SDS011;7116;52.152;5.392;2023-03-05T11:58:43;7.13;;;2.10;;
14080;SDS011;7116;52.152;5.392;2023-03-05T12:03:43;3.83;;;2.50;;
14080;SDS011;7116;52.152;5.392;2023-03-05T12:06:12;3.00;;;2.00;;
14080;SDS011;7116;52.152;5.392;2023-03-05T12:08:40;6.18;;;2.33;;
14080;SDS011;7116;52.152;5.392;2023-03-05T12:11:08;5.07;;;2.20;;
14080;SDS011;7116;52.152;5.392;2023-03-05T12:13:45;3.72;;;2.35;;
14080;SDS011;7116;52.152;5.392;2023-03-05T12:19:09;4.17;;;1.80;;
14080;SDS011;7116;52.152;5.392;2023-03-05T12:21:39;3.42;;;2.00;;
14080;SDS011;7116;52.152;5.392;2023-03-05T12:31:51;5.05;;;1.80;;
14080;SDS011;7116;52.152;5.392;2023-03-05T12:34:33;6.45;;;2.50;;
14080;SDS011;7116;52.152;5.392;2023-03-05T12:36:59;8.60;;;1.97;;
14080;SDS011;7116;52.152;5.392;2023-03-05T12:45:06;2.08;;;1.63;;
14080;SDS011;7116;52.152;5.392;2023-03-05T12:47:37;2.83;;;2.20;;
14080;SDS011;7116;52.152;5.392;2023-03-05T12:50:03;3.70;;;2.53;;
14080;SDS011;7116;52.152;5.392;2023-03-05T12:52:30;3.77;;;2.20;;
14080;SDS011;7116;52.152;5.392;2023-03-05T12:57:32;5.93;;;1.80;;
14080;SDS011;7116;52.152;5.392;2023-03-05T13:00:00;2.60;;;2.00;;
14080;SDS011;7116;52.152;5.392;2023-03-05T13:02:42;3.85;;;2.08;;
14080;SDS011;7116;52.152;5.392;2023-03-05T13:07:42;6.73;;;2.23;;
14080;SDS011;7116;52.152;5.392;2023-03-05T13:10:19;2.20;;;1.97;;
14080;SDS011;7116;52.152;5.392;2023-03-05T13:12:51;3.88;;;2.05;;
14080;SDS011;7116;52.152;5.392;2023-03-05T13:15:20;2.50;;;2.28;;
14080;SDS011;7116;52.152;5.392;2023-03-05T13:17:55;2.80;;;2.10;;
14080;SDS011;7116;52.152;5.392;2023-03-05T13:25:33;4.28;;;2.40;;
14080;SDS011;7116;52.152;5.392;2023-03-05T13:28:02;3.33;;;2.50;;
14080;SDS011;7116;52.152;5.392;2023-03-05T13:30:27;3.22;;;2.47;;
14080;SDS011;7116;52.152;5.392;2023-03-05T13:32:54;4.57;;;2.00;;
14080;SDS011;7116;52.152;5.392;2023-03-05T13:35:19;5.38;;;2.40;;
14080;SDS011;7116;52.152;5.392;2023-03-05T13:37:45;2.80;;;2.30;;
14080;SDS011;7116;52.152;5.392;2023-03-05T13:40:21;2.85;;;2.42;;
14080;SDS011;7116;52.152;5.392;2023-03-05T13:42:46;5.00;;;2.40;;
14080;SDS011;7116;52.152;5.392;2023-03-05T13:45:22;5.23;;;2.40;;
14080;SDS011;7116;52.152;5.392;2023-03-05T13:47:52;4.77;;;2.43;;
14080;SDS011;7116;52.152;5.392;2023-03-05T13:50:21;4.00;;;2.40;;
14080;SDS011;7116;52.152;5.392;2023-03-05T13:52:46;3.65;;;2.42;;
14080;SDS011;7116;52.152;5.392;2023-03-05T13:55:12;4.33;;;2.07;;
14080;SDS011;7116;52.152;5.392;2023-03-05T14:00:05;4.27;;;2.50;;
14080;SDS011;7116;52.152;5.392;2023-03-05T14:02:31;4.47;;;2.65;;
14080;SDS011;7116;52.152;5.392;2023-03-05T14:04:56;5.23;;;2.50;;
14080;SDS011;7116;52.152;5.392;2023-03-05T14:07:27;4.23;;;2.93;;
14080;SDS011;7116;52.152;5.392;2023-03-05T14:09:53;3.75;;;2.55;;
14080;SDS011;7116;52.152;5.392;2023-03-05T14:15:02;3.35;;;2.40;;
14080;SDS011;7116;52.152;5.392;2023-03-05T14:17:40;4.25;;;2.70;;
14080;SDS011;7116;52.152;5.392;2023-03-05T14:22:38;4.63;;;3.08;;
14080;SDS011;7116;52.152;5.392;2023-03-05T14:25:04;7.83;;;2.93;;
14080;SDS011;7116;52.152;5.392;2023-03-05T14:27:30;6.97;;;2.75;;
14080;SDS011;7116;52.152;5.392;2023-03-05T14:29:57;5.05;;;2.67;;
14080;SDS011;7116;52.152;5.392;2023-03-05T14:32:29;5.47;;;3.20;;
14080;SDS011;7116;52.152;5.392;2023-03-05T14:34:56;5.50;;;2.55;;
14080;SDS011;7116;52.152;5.392;2023-03-05T14:37:28;6.65;;;2.60;;
14080;SDS011;7116;52.152;5.392;2023-03-05T14:39:54;5.70;;;2.30;;
14080;SDS011;7116;52.152;5.392;2023-03-05T14:42:27;3.80;;;2.92;;
14080;SDS011;7116;52.152;5.392;2023-03-05T14:44:53;5.30;;;2.67;;
14080;SDS011;7116;52.152;5.392;2023-03-05T14:47:20;4.25;;;2.97;;
14080;SDS011;7116;52.152;5.392;2023-03-05T14:49:45;5.13;;;3.33;;
14080;SDS011;7116;52.152;5.392;2023-03-05T14:52:13;8.40;;;3.77;;
14080;SDS011;7116;52.152;5.392;2023-03-05T14:54:38;3.70;;;2.90;;
14080;SDS011;7116;52.152;5.392;2023-03-05T14:57:04;4.63;;;3.03;;
14080;SDS011;7116;52.152;5.392;2023-03-05T14:59:29;5.77;;;3.10;;
14080;SDS011;7116;52.152;5.392;2023-03-05T15:01:54;5.77;;;2.93;;
14080;SDS011;7116;52.152;5.392;2023-03-05T15:04:21;7.53;;;3.45;;
14080;SDS011;7116;52.152;5.392;2023-03-05T15:06:46;3.33;;;3.03;;
14080;SDS011;7116;52.152;5.392;2023-03-05T15:09:15;6.07;;;3.65;;
14080;SDS011;7116;52.152;5.392;2023-03-05T15:11:42;3.80;;;3.13;;
14080;SDS011;7116;52.152;5.392;2023-03-05T15:14:08;6.33;;;2.70;;
14080;SDS011;7116;52.152;5.392;2023-03-05T15:16:33;5.32;;;3.58;;
14080;SDS011;7116;52.152;5.392;2023-03-05T15:18:58;5.13;;;3.50;;
14080;SDS011;7116;52.152;5.392;2023-03-05T15:21:24;4.13;;;3.20;;
14080;SDS011;7116;52.152;5.392;2023-03-05T15:23:49;6.57;;;3.30;;
14080;SDS011;7116;52.152;5.392;2023-03-05T15:26:14;5.87;;;3.10;;
14080;SDS011;7116;52.152;5.392;2023-03-05T15:28:40;4.60;;;3.50;;
14080;SDS011;7116;52.152;5.392;2023-03-05T15:31:06;7.97;;;4.25;;
14080;SDS011;7116;52.152;5.392;2023-03-05T15:33:32;5.60;;;3.55;;
14080;SDS011;7116;52.152;5.392;2023-03-05T15:35:57;6.80;;;3.73;;
14080;SDS011;7116;52.152;5.392;2023-03-05T15:38:23;4.33;;;2.73;;
14080;SDS011;7116;52.152;5.392;2023-03-05T15:40:48;6.30;;;3.53;;
14080;SDS011;7116;52.152;5.392;2023-03-05T15:43:14;8.33;;;3.80;;
14080;SDS011;7116;52.152;5.392;2023-03-05T15:45:39;7.57;;;3.83;;
14080;SDS011;7116;52.152;5.392;2023-03-05T15:48:04;6.67;;;4.00;;
14080;SDS011;7116;52.152;5.392;2023-03-05T15:50:30;6.37;;;4.07;;
14080;SDS011;7116;52.152;5.392;2023-03-05T15:52:55;9.60;;;3.90;;
14080;SDS011;7116;52.152;5.392;2023-03-05T15:55:21;6.55;;;3.55;;
14080;SDS011;7116;52.152;5.392;2023-03-05T15:57:47;4.77;;;3.00;;
14080;SDS011;7116;52.152;5.392;2023-03-05T16:00:14;6.80;;;3.30;;
14080;SDS011;7116;52.152;5.392;2023-03-05T16:02:39;8.48;;;2.92;;
14080;SDS011;7116;52.152;5.392;2023-03-05T16:05:04;8.67;;;3.70;;
14080;SDS011;7116;52.152;5.392;2023-03-05T16:07:30;5.97;;;3.53;;
14080;SDS011;7116;52.152;5.392;2023-03-05T16:09:55;4.47;;;2.77;;
14080;SDS011;7116;52.152;5.392;2023-03-05T16:12:22;6.90;;;3.70;;